sensor_id;sensor_type;location;lat;lon;timestamp;P1;durP1;ratioP1;P2;durP2;ratioP2
62584;SDS011;48643;51.670;5.808;2023-02-28T00:00:29;8.88;;;5.28;;
62584;SDS011;48643;51.670;5.808;2023-02-28T00:02:56;10.07;;;5.63;;
62584;SDS011;48643;51.670;5.808;2023-02-28T00:05:23;8.98;;;5.50;;
62584;SDS011;48643;51.670;5.808;2023-02-28T00:07:51;9.25;;;5.60;;
62584;SDS011;48643;51.670;5.808;2023-02-28T00:10:19;10.10;;;5.22;;
62584;SDS011;48643;51.670;5.808;2023-02-28T00:12:47;7.50;;;5.40;;
62584;SDS011;48643;51.670;5.808;2023-02-28T00:15:15;8.75;;;5.53;;
62584;SDS011;48643;51.670;5.808;2023-02-28T00:17:43;10.35;;;5.50;;
62584;SDS011;48643;51.670;5.808;2023-02-28T00:20:11;9.73;;;5.47;;
62584;SDS011;48643;51.670;5.808;2023-02-28T00:22:40;9.07;;;5.75;;
62584;SDS011;48643;51.670;5.808;2023-02-28T00:25:11;8.07;;;5.20;;
62584;SDS011;48643;51.670;5.808;2023-02-28T00:27:40;8.20;;;5.43;;
62584;SDS011;48643;51.670;5.808;2023-02-28T00:30:08;7.75;;;5.03;;
62584;SDS011;48643;51.670;5.808;2023-02-28T00:35:04;7.45;;;5.30;;
62584;SDS011;48643;51.670;5.808;2023-02-28T00:37:32;8.30;;;5.30;;
62584;SDS011;48643;51.670;5.808;2023-02-28T00:39:59;7.57;;;5.25;;
62584;SDS011;48643;51.670;5.808;2023-02-28T00:42:26;8.98;;;5.30;;
62584;SDS011;48643;51.670;5.808;2023-02-28T00:44:53;8.38;;;5.05;;
62584;SDS011;48643;51.670;5.808;2023-02-28T00:47:20;8.70;;;5.40;;
62584;SDS011;48643;51.670;5.808;2023-02-28T00:49:47;8.10;;;5.30;;
62584;SDS011;48643;51.670;5.808;2023-02-28T00:52:14;8.55;;;5.70;;
62584;SDS011;48643;51.670;5.808;2023-02-28T00:54:41;8.60;;;5.53;;
62584;SDS011;48643;51.670;5.808;2023-02-28T00:57:07;10.15;;;5.40;;
62584;SDS011;48643;51.670;5.808;2023-02-28T00:59:34;7.50;;;5.20;;
62584;SDS011;48643;51.670;5.808;2023-02-28T01:02:01;8.45;;;5.03;;
62584;SDS011;48643;51.670;5.808;2023-02-28T01:04:28;7.13;;;5.20;;
62584;SDS011;48643;51.670;5.808;2023-02-28T01:06:55;8.30;;;5.47;;
62584;SDS011;48643;51.670;5.808;2023-02-28T01:09:22;8.90;;;5.25;;
62584;SDS011;48643;51.670;5.808;2023-02-28T01:11:48;8.95;;;5.50;;
62584;SDS011;48643;51.670;5.808;2023-02-28T01:14:16;10.13;;;5.28;;
62584;SDS011;48643;51.670;5.808;2023-02-28T01:16:44;7.68;;;5.40;;
62584;SDS011;48643;51.670;5.808;2023-02-28T01:19:11;8.80;;;5.00;;
62584;SDS011;48643;51.670;5.808;2023-02-28T01:21:38;7.93;;;5.53;;
62584;SDS011;48643;51.670;5.808;2023-02-28T01:24:05;7.20;;;5.03;;
62584;SDS011;48643;51.670;5.808;2023-02-28T01:26:34;7.40;;;5.07;;
62584;SDS011;48643;51.670;5.808;2023-02-28T01:29:01;7.25;;;4.90;;
62584;SDS011;48643;51.670;5.808;2023-02-28T01:31:28;8.20;;;5.57;;
62584;SDS011;48643;51.670;5.808;2023-02-28T01:33:55;8.88;;;5.22;;
62584;SDS011;48643;51.670;5.808;2023-02-28T01:36:26;10.65;;;4.78;;
62584;SDS011;48643;51.670;5.808;2023-02-28T01:38:54;9.25;;;5.13;;
62584;SDS011;48643;51.670;5.808;2023-02-28T01:41:26;7.07;;;4.95;;
62584;SDS011;48643;51.670;5.808;2023-02-28T01:46:38;8.43;;;5.00;;
62584;SDS011;48643;51.670;5.808;2023-02-28T01:49:08;9.90;;;5.38;;
62584;SDS011;48643;51.670;5.808;2023-02-28T01:51:40;10.55;;;5.05;;
62584;SDS011;48643;51.670;5.808;2023-02-28T01:54:22;9.00;;;5.40;;
62584;SDS011;48643;51.670;5.808;2023-02-28T01:56:53;7.18;;;4.88;;
62584;SDS011;48643;51.670;5.808;2023-02-28T01:59:27;8.55;;;5.10;;
62584;SDS011;48643;51.670;5.808;2023-02-28T02:01:58;6.63;;;4.93;;
62584;SDS011;48643;51.670;5.808;2023-02-28T02:04:27;8.45;;;5.38;;
62584;SDS011;48643;51.670;5.808;2023-02-28T02:07:03;8.68;;;5.20;;
62584;SDS011;48643;51.670;5.808;2023-02-28T02:09:30;8.82;;;4.90;;
62584;SDS011;48643;51.670;5.808;2023-02-28T02:11:57;8.65;;;5.10;;
62584;SDS011;48643;51.670;5.808;2023-02-28T02:17:28;8.87;;;5.00;;
62584;SDS011;48643;51.670;5.808;2023-02-28T02:22:49;8.30;;;5.15;;
62584;SDS011;48643;51.670;5.808;2023-02-28T02:25:28;7.50;;;5.13;;
62584;SDS011;48643;51.670;5.808;2023-02-28T02:28:13;10.63;;;5.00;;
62584;SDS011;48643;51.670;5.808;2023-02-28T02:31:10;9.25;;;5.13;;
62584;SDS011;48643;51.670;5.808;2023-02-28T02:36:38;7.88;;;5.07;;
62584;SDS011;48643;51.670;5.808;2023-02-28T02:39:16;9.23;;;4.85;;
62584;SDS011;48643;51.670;5.808;2023-02-28T02:41:51;6.85;;;4.93;;
62584;SDS011;48643;51.670;5.808;2023-02-28T02:44:21;7.97;;;5.18;;
62584;SDS011;48643;51.670;5.808;2023-02-28T02:46:51;9.30;;;5.10;;
62584;SDS011;48643;51.670;5.808;2023-02-28T02:49:33;8.40;;;5.40;;
62584;SDS011;48643;51.670;5.808;2023-02-28T02:52:06;8.65;;;5.10;;
62584;SDS011;48643;51.670;5.808;2023-02-28T02:54:37;11.45;;;5.03;;
62584;SDS011;48643;51.670;5.808;2023-02-28T02:57:07;7.88;;;5.15;;
62584;SDS011;48643;51.670;5.808;2023-02-28T02:59:38;6.63;;;4.78;;
62584;SDS011;48643;51.670;5.808;2023-02-28T03:02:06;9.50;;;5.07;;
62584;SDS011;48643;51.670;5.808;2023-02-28T03:04:40;6.38;;;4.93;;
62584;SDS011;48643;51.670;5.808;2023-02-28T03:07:10;8.45;;;4.90;;
62584;SDS011;48643;51.670;5.808;2023-02-28T03:09:36;7.63;;;4.97;;
62584;SDS011;48643;51.670;5.808;2023-02-28T03:12:06;7.68;;;4.50;;
62584;SDS011;48643;51.670;5.808;2023-02-28T03:17:25;7.28;;;4.63;;
62584;SDS011;48643;51.670;5.808;2023-02-28T03:25:29;7.72;;;4.75;;
62584;SDS011;48643;51.670;5.808;2023-02-28T03:28:05;9.05;;;4.72;;
62584;SDS011;48643;51.670;5.808;2023-02-28T03:30:36;6.65;;;4.70;;
62584;SDS011;48643;51.670;5.808;2023-02-28T03:33:13;8.27;;;4.75;;
62584;SDS011;48643;51.670;5.808;2023-02-28T03:35:43;7.40;;;4.53;;
62584;SDS011;48643;51.670;5.808;2023-02-28T03:38:18;6.03;;;4.40;;
62584;SDS011;48643;51.670;5.808;2023-02-28T03:40:50;9.48;;;4.70;;
62584;SDS011;48643;51.670;5.808;2023-02-28T03:43:25;6.53;;;4.38;;
62584;SDS011;48643;51.670;5.808;2023-02-28T03:45:55;7.47;;;4.30;;
62584;SDS011;48643;51.670;5.808;2023-02-28T03:48:28;7.15;;;4.43;;
62584;SDS011;48643;51.670;5.808;2023-02-28T03:50:59;6.85;;;4.28;;
62584;SDS011;48643;51.670;5.808;2023-02-28T03:56:17;8.13;;;4.72;;
62584;SDS011;48643;51.670;5.808;2023-02-28T03:59:06;6.38;;;4.47;;
62584;SDS011;48643;51.670;5.808;2023-02-28T04:01:36;9.63;;;4.43;;
62584;SDS011;48643;51.670;5.808;2023-02-28T04:04:08;6.10;;;4.40;;
62584;SDS011;48643;51.670;5.808;2023-02-28T04:06:35;8.10;;;4.30;;
62584;SDS011;48643;51.670;5.808;2023-02-28T04:09:03;6.05;;;4.22;;
62584;SDS011;48643;51.670;5.808;2023-02-28T04:11:44;7.47;;;4.13;;
62584;SDS011;48643;51.670;5.808;2023-02-28T04:14:12;8.02;;;4.40;;
62584;SDS011;48643;51.670;5.808;2023-02-28T04:16:40;7.22;;;4.25;;
62584;SDS011;48643;51.670;5.808;2023-02-28T04:19:08;5.60;;;4.18;;
62584;SDS011;48643;51.670;5.808;2023-02-28T04:21:40;7.20;;;4.00;;
62584;SDS011;48643;51.670;5.808;2023-02-28T04:24:09;6.90;;;4.35;;
62584;SDS011;48643;51.670;5.808;2023-02-28T04:26:41;5.47;;;3.80;;
62584;SDS011;48643;51.670;5.808;2023-02-28T04:29:10;5.68;;;3.95;;
62584;SDS011;48643;51.670;5.808;2023-02-28T04:31:38;7.30;;;4.30;;
62584;SDS011;48643;51.670;5.808;2023-02-28T04:34:05;6.38;;;4.00;;
62584;SDS011;48643;51.670;5.808;2023-02-28T04:36:33;6.30;;;4.05;;
62584;SDS011;48643;51.670;5.808;2023-02-28T04:38:59;7.38;;;4.03;;
62584;SDS011;48643;51.670;5.808;2023-02-28T04:41:26;5.72;;;3.85;;
62584;SDS011;48643;51.670;5.808;2023-02-28T04:43:57;6.57;;;3.90;;
62584;SDS011;48643;51.670;5.808;2023-02-28T04:46:24;6.50;;;3.85;;
62584;SDS011;48643;51.670;5.808;2023-02-28T04:48:51;6.78;;;4.03;;
62584;SDS011;48643;51.670;5.808;2023-02-28T04:51:18;7.07;;;4.15;;
62584;SDS011;48643;51.670;5.808;2023-02-28T04:53:46;9.65;;;4.40;;
62584;SDS011;48643;51.670;5.808;2023-02-28T04:56:15;5.28;;;3.97;;
62584;SDS011;48643;51.670;5.808;2023-02-28T04:58:43;5.50;;;3.90;;
62584;SDS011;48643;51.670;5.808;2023-02-28T05:01:17;7.50;;;3.85;;
62584;SDS011;48643;51.670;5.808;2023-02-28T05:03:52;6.07;;;3.92;;
62584;SDS011;48643;51.670;5.808;2023-02-28T05:06:20;5.88;;;3.83;;
62584;SDS011;48643;51.670;5.808;2023-02-28T05:08:50;6.88;;;3.97;;
62584;SDS011;48643;51.670;5.808;2023-02-28T05:11:21;6.07;;;4.05;;
62584;SDS011;48643;51.670;5.808;2023-02-28T05:13:48;5.53;;;3.55;;
62584;SDS011;48643;51.670;5.808;2023-02-28T05:16:16;6.85;;;4.28;;
62584;SDS011;48643;51.670;5.808;2023-02-28T05:18:43;6.20;;;3.88;;
62584;SDS011;48643;51.670;5.808;2023-02-28T05:23:54;5.75;;;3.90;;
62584;SDS011;48643;51.670;5.808;2023-02-28T05:26:22;6.22;;;3.75;;
62584;SDS011;48643;51.670;5.808;2023-02-28T05:28:49;6.18;;;3.95;;
62584;SDS011;48643;51.670;5.808;2023-02-28T05:31:16;5.20;;;3.70;;
62584;SDS011;48643;51.670;5.808;2023-02-28T05:33:43;5.53;;;3.70;;
62584;SDS011;48643;51.670;5.808;2023-02-28T05:36:10;6.00;;;3.60;;
62584;SDS011;48643;51.670;5.808;2023-02-28T05:38:37;6.00;;;3.85;;
62584;SDS011;48643;51.670;5.808;2023-02-28T05:41:07;5.88;;;3.78;;
62584;SDS011;48643;51.670;5.808;2023-02-28T05:43:35;5.25;;;3.67;;
62584;SDS011;48643;51.670;5.808;2023-02-28T05:46:06;6.43;;;4.00;;
62584;SDS011;48643;51.670;5.808;2023-02-28T05:48:35;5.68;;;3.63;;
62584;SDS011;48643;51.670;5.808;2023-02-28T05:51:02;9.20;;;4.28;;
62584;SDS011;48643;51.670;5.808;2023-02-28T05:53:30;7.85;;;3.90;;
62584;SDS011;48643;51.670;5.808;2023-02-28T05:55:57;6.55;;;3.65;;
62584;SDS011;48643;51.670;5.808;2023-02-28T05:58:24;5.03;;;3.65;;
62584;SDS011;48643;51.670;5.808;2023-02-28T06:00:57;6.05;;;3.63;;
62584;SDS011;48643;51.670;5.808;2023-02-28T06:03:24;6.82;;;4.03;;
62584;SDS011;48643;51.670;5.808;2023-02-28T06:05:51;5.68;;;3.78;;
62584;SDS011;48643;51.670;5.808;2023-02-28T06:08:18;7.13;;;4.00;;
62584;SDS011;48643;51.670;5.808;2023-02-28T06:10:45;5.57;;;3.60;;
62584;SDS011;48643;51.670;5.808;2023-02-28T06:13:12;6.10;;;3.90;;
62584;SDS011;48643;51.670;5.808;2023-02-28T06:15:39;7.35;;;4.30;;
62584;SDS011;48643;51.670;5.808;2023-02-28T06:18:05;5.88;;;3.78;;
62584;SDS011;48643;51.670;5.808;2023-02-28T06:20:32;7.25;;;3.78;;
62584;SDS011;48643;51.670;5.808;2023-02-28T06:22:59;6.85;;;3.90;;
62584;SDS011;48643;51.670;5.808;2023-02-28T06:25:26;6.35;;;4.05;;
62584;SDS011;48643;51.670;5.808;2023-02-28T06:27:54;5.88;;;3.70;;
62584;SDS011;48643;51.670;5.808;2023-02-28T06:30:21;5.85;;;3.95;;
62584;SDS011;48643;51.670;5.808;2023-02-28T06:32:51;6.30;;;3.80;;
62584;SDS011;48643;51.670;5.808;2023-02-28T06:35:18;6.45;;;3.85;;
62584;SDS011;48643;51.670;5.808;2023-02-28T06:37:45;7.60;;;4.18;;
62584;SDS011;48643;51.670;5.808;2023-02-28T06:40:13;6.65;;;4.13;;
62584;SDS011;48643;51.670;5.808;2023-02-28T06:42:40;6.90;;;3.92;;
62584;SDS011;48643;51.670;5.808;2023-02-28T06:45:07;6.72;;;4.20;;
62584;SDS011;48643;51.670;5.808;2023-02-28T06:47:36;6.72;;;3.80;;
62584;SDS011;48643;51.670;5.808;2023-02-28T06:50:04;6.07;;;3.70;;
62584;SDS011;48643;51.670;5.808;2023-02-28T06:52:31;6.95;;;4.00;;
62584;SDS011;48643;51.670;5.808;2023-02-28T06:54:58;6.85;;;4.15;;
62584;SDS011;48643;51.670;5.808;2023-02-28T07:00:00;5.97;;;3.80;;
62584;SDS011;48643;51.670;5.808;2023-02-28T07:02:29;7.05;;;3.90;;
62584;SDS011;48643;51.670;5.808;2023-02-28T07:04:56;7.72;;;4.00;;
62584;SDS011;48643;51.670;5.808;2023-02-28T07:07:23;6.20;;;3.90;;
62584;SDS011;48643;51.670;5.808;2023-02-28T07:09:49;5.38;;;3.97;;
62584;SDS011;48643;51.670;5.808;2023-02-28T07:12:16;6.13;;;3.92;;
62584;SDS011;48643;51.670;5.808;2023-02-28T07:14:43;6.22;;;3.97;;
62584;SDS011;48643;51.670;5.808;2023-02-28T07:17:10;7.80;;;4.28;;
62584;SDS011;48643;51.670;5.808;2023-02-28T07:19:38;6.57;;;3.92;;
62584;SDS011;48643;51.670;5.808;2023-02-28T07:22:06;6.90;;;4.00;;
62584;SDS011;48643;51.670;5.808;2023-02-28T07:24:33;5.85;;;3.90;;
62584;SDS011;48643;51.670;5.808;2023-02-28T07:27:00;7.70;;;4.05;;
62584;SDS011;48643;51.670;5.808;2023-02-28T07:29:27;6.10;;;4.03;;
62584;SDS011;48643;51.670;5.808;2023-02-28T07:31:55;6.05;;;3.97;;
62584;SDS011;48643;51.670;5.808;2023-02-28T07:34:23;6.70;;;4.22;;
62584;SDS011;48643;51.670;5.808;2023-02-28T07:36:52;7.47;;;4.00;;
62584;SDS011;48643;51.670;5.808;2023-02-28T07:39:20;8.30;;;3.80;;
62584;SDS011;48643;51.670;5.808;2023-02-28T07:41:48;6.07;;;3.90;;
62584;SDS011;48643;51.670;5.808;2023-02-28T07:44:15;5.90;;;4.05;;
62584;SDS011;48643;51.670;5.808;2023-02-28T07:46:42;7.18;;;4.13;;
62584;SDS011;48643;51.670;5.808;2023-02-28T07:49:09;8.10;;;4.45;;
62584;SDS011;48643;51.670;5.808;2023-02-28T07:51:36;7.53;;;4.63;;
62584;SDS011;48643;51.670;5.808;2023-02-28T07:54:02;10.98;;;4.45;;
62584;SDS011;48643;51.670;5.808;2023-02-28T07:56:30;8.05;;;4.43;;
62584;SDS011;48643;51.670;5.808;2023-02-28T07:58:57;7.13;;;4.53;;
62584;SDS011;48643;51.670;5.808;2023-02-28T08:01:24;11.10;;;4.78;;
62584;SDS011;48643;51.670;5.808;2023-02-28T08:03:51;7.00;;;4.50;;
62584;SDS011;48643;51.670;5.808;2023-02-28T08:06:19;14.43;;;4.60;;
62584;SDS011;48643;51.670;5.808;2023-02-28T08:08:48;11.55;;;4.60;;
62584;SDS011;48643;51.670;5.808;2023-02-28T08:11:15;9.93;;;4.18;;
62584;SDS011;48643;51.670;5.808;2023-02-28T08:13:43;7.50;;;4.43;;
62584;SDS011;48643;51.670;5.808;2023-02-28T08:16:11;13.73;;;4.63;;
62584;SDS011;48643;51.670;5.808;2023-02-28T08:18:41;6.38;;;3.85;;
62584;SDS011;48643;51.670;5.808;2023-02-28T08:21:08;7.57;;;4.15;;
62584;SDS011;48643;51.670;5.808;2023-02-28T08:23:36;7.70;;;4.13;;
62584;SDS011;48643;51.670;5.808;2023-02-28T08:26:03;10.25;;;4.50;;
62584;SDS011;48643;51.670;5.808;2023-02-28T08:28:30;9.05;;;4.10;;
62584;SDS011;48643;51.670;5.808;2023-02-28T08:30:57;7.07;;;3.95;;
62584;SDS011;48643;51.670;5.808;2023-02-28T08:33:24;5.32;;;3.78;;
62584;SDS011;48643;51.670;5.808;2023-02-28T08:35:52;6.95;;;4.10;;
62584;SDS011;48643;51.670;5.808;2023-02-28T08:38:23;7.47;;;3.20;;
62584;SDS011;48643;51.670;5.808;2023-02-28T08:40:53;8.77;;;3.53;;
62584;SDS011;48643;51.670;5.808;2023-02-28T08:43:24;5.68;;;3.20;;
62584;SDS011;48643;51.670;5.808;2023-02-28T08:45:54;7.03;;;2.85;;
62584;SDS011;48643;51.670;5.808;2023-02-28T08:48:23;11.50;;;3.63;;
62584;SDS011;48643;51.670;5.808;2023-02-28T08:51:04;8.52;;;3.20;;
62584;SDS011;48643;51.670;5.808;2023-02-28T08:53:38;8.15;;;3.10;;
62584;SDS011;48643;51.670;5.808;2023-02-28T08:56:07;8.48;;;2.97;;
62584;SDS011;48643;51.670;5.808;2023-02-28T08:58:35;10.93;;;3.00;;
62584;SDS011;48643;51.670;5.808;2023-02-28T09:01:12;8.45;;;2.83;;
62584;SDS011;48643;51.670;5.808;2023-02-28T09:03:41;5.93;;;3.10;;
62584;SDS011;48643;51.670;5.808;2023-02-28T09:06:09;8.25;;;2.78;;
62584;SDS011;48643;51.670;5.808;2023-02-28T09:08:36;16.92;;;3.10;;
62584;SDS011;48643;51.670;5.808;2023-02-28T09:11:03;6.95;;;2.92;;
62584;SDS011;48643;51.670;5.808;2023-02-28T09:13:30;6.32;;;2.83;;
62584;SDS011;48643;51.670;5.808;2023-02-28T09:15:59;11.73;;;2.78;;
62584;SDS011;48643;51.670;5.808;2023-02-28T09:18:27;6.53;;;2.80;;
62584;SDS011;48643;51.670;5.808;2023-02-28T09:20:55;5.30;;;2.88;;
62584;SDS011;48643;51.670;5.808;2023-02-28T09:23:22;6.82;;;2.75;;
62584;SDS011;48643;51.670;5.808;2023-02-28T09:25:51;5.53;;;2.50;;
62584;SDS011;48643;51.670;5.808;2023-02-28T09:30:50;7.47;;;2.55;;
62584;SDS011;48643;51.670;5.808;2023-02-28T09:33:19;5.13;;;2.30;;
62584;SDS011;48643;51.670;5.808;2023-02-28T09:35:53;12.20;;;2.65;;
62584;SDS011;48643;51.670;5.808;2023-02-28T09:38:31;14.43;;;3.15;;
62584;SDS011;48643;51.670;5.808;2023-02-28T09:40:59;15.35;;;2.75;;
62584;SDS011;48643;51.670;5.808;2023-02-28T09:43:29;9.60;;;2.60;;
62584;SDS011;48643;51.670;5.808;2023-02-28T09:48:52;5.70;;;2.60;;
62584;SDS011;48643;51.670;5.808;2023-02-28T09:54:12;10.07;;;2.60;;
62584;SDS011;48643;51.670;5.808;2023-02-28T09:59:39;9.38;;;2.42;;
62584;SDS011;48643;51.670;5.808;2023-02-28T10:05:02;9.82;;;2.80;;
62584;SDS011;48643;51.670;5.808;2023-02-28T10:07:41;5.43;;;2.65;;
62584;SDS011;48643;51.670;5.808;2023-02-28T10:12:51;4.50;;;2.22;;
62584;SDS011;48643;51.670;5.808;2023-02-28T10:15:19;5.75;;;2.40;;
62584;SDS011;48643;51.670;5.808;2023-02-28T10:17:48;5.40;;;2.20;;
62584;SDS011;48643;51.670;5.808;2023-02-28T10:20:35;6.63;;;2.03;;
62584;SDS011;48643;51.670;5.808;2023-02-28T10:23:20;3.03;;;2.20;;
62584;SDS011;48643;51.670;5.808;2023-02-28T10:26:08;5.72;;;2.28;;
62584;SDS011;48643;51.670;5.808;2023-02-28T10:28:42;4.38;;;2.22;;
62584;SDS011;48643;51.670;5.808;2023-02-28T10:31:17;5.90;;;2.10;;
62584;SDS011;48643;51.670;5.808;2023-02-28T10:33:45;3.20;;;2.25;;
62584;SDS011;48643;51.670;5.808;2023-02-28T10:36:14;3.63;;;2.20;;
62584;SDS011;48643;51.670;5.808;2023-02-28T10:38:43;4.22;;;2.10;;
62584;SDS011;48643;51.670;5.808;2023-02-28T10:41:12;6.40;;;1.95;;
62584;SDS011;48643;51.670;5.808;2023-02-28T10:43:42;5.15;;;1.98;;
62584;SDS011;48643;51.670;5.808;2023-02-28T10:46:12;3.97;;;2.03;;
62584;SDS011;48643;51.670;5.808;2023-02-28T10:51:27;3.97;;;2.10;;
62584;SDS011;48643;51.670;5.808;2023-02-28T10:54:01;5.38;;;2.10;;
62584;SDS011;48643;51.670;5.808;2023-02-28T10:56:29;3.78;;;2.42;;
62584;SDS011;48643;51.670;5.808;2023-02-28T10:59:23;22.17;;;2.55;;
62584;SDS011;48643;51.670;5.808;2023-02-28T11:01:55;7.90;;;2.55;;
62584;SDS011;48643;51.670;5.808;2023-02-28T11:06:59;5.88;;;2.10;;
62584;SDS011;48643;51.670;5.808;2023-02-28T11:12:36;4.82;;;1.90;;
62584;SDS011;48643;51.670;5.808;2023-02-28T11:15:21;2.85;;;1.80;;
62584;SDS011;48643;51.670;5.808;2023-02-28T11:20:25;4.32;;;1.92;;
62584;SDS011;48643;51.670;5.808;2023-02-28T11:22:57;6.82;;;2.00;;
62584;SDS011;48643;51.670;5.808;2023-02-28T11:25:26;5.20;;;2.10;;
62584;SDS011;48643;51.670;5.808;2023-02-28T11:27:59;5.82;;;1.95;;
62584;SDS011;48643;51.670;5.808;2023-02-28T11:30:29;5.53;;;1.80;;
62584;SDS011;48643;51.670;5.808;2023-02-28T11:33:15;5.72;;;3.90;;
62584;SDS011;48643;51.670;5.808;2023-02-28T11:36:10;6.03;;;4.40;;
62584;SDS011;48643;51.670;5.808;2023-02-28T11:38:37;6.82;;;4.50;;
62584;SDS011;48643;51.670;5.808;2023-02-28T11:41:17;8.30;;;6.35;;
62584;SDS011;48643;51.670;5.808;2023-02-28T11:44:05;3.22;;;2.00;;
62584;SDS011;48643;51.670;5.808;2023-02-28T11:47:04;3.78;;;1.90;;
62584;SDS011;48643;51.670;5.808;2023-02-28T11:50:26;4.93;;;1.80;;
62584;SDS011;48643;51.670;5.808;2023-02-28T11:52:48;2.13;;;1.70;;
62584;SDS011;48643;51.670;5.808;2023-02-28T11:55:23;3.97;;;1.95;;
62584;SDS011;48643;51.670;5.808;2023-02-28T12:00:48;4.07;;;2.00;;
62584;SDS011;48643;51.670;5.808;2023-02-28T12:03:45;2.58;;;1.83;;
62584;SDS011;48643;51.670;5.808;2023-02-28T12:20:06;7.00;;;2.15;;
62584;SDS011;48643;51.670;5.808;2023-02-28T12:28:11;3.72;;;2.10;;
62584;SDS011;48643;51.670;5.808;2023-02-28T12:30:59;3.80;;;2.20;;
62584;SDS011;48643;51.670;5.808;2023-02-28T12:33:32;3.63;;;2.13;;
62584;SDS011;48643;51.670;5.808;2023-02-28T12:36:03;4.38;;;1.83;;
62584;SDS011;48643;51.670;5.808;2023-02-28T12:38:38;2.83;;;2.15;;
62584;SDS011;48643;51.670;5.808;2023-02-28T12:41:17;2.85;;;1.85;;
62584;SDS011;48643;51.670;5.808;2023-02-28T12:43:45;2.72;;;1.90;;
62584;SDS011;48643;51.670;5.808;2023-02-28T12:46:16;3.17;;;2.00;;
62584;SDS011;48643;51.670;5.808;2023-02-28T12:48:50;4.78;;;2.10;;
62584;SDS011;48643;51.670;5.808;2023-02-28T12:51:21;2.60;;;2.00;;
62584;SDS011;48643;51.670;5.808;2023-02-28T12:53:51;3.17;;;2.10;;
62584;SDS011;48643;51.670;5.808;2023-02-28T12:59:31;3.13;;;1.95;;
62584;SDS011;48643;51.670;5.808;2023-02-28T13:02:16;3.28;;;1.98;;
62584;SDS011;48643;51.670;5.808;2023-02-28T13:04:54;3.35;;;2.00;;
62584;SDS011;48643;51.670;5.808;2023-02-28T13:10:20;3.33;;;1.95;;
62584;SDS011;48643;51.670;5.808;2023-02-28T13:12:51;2.30;;;1.70;;
62584;SDS011;48643;51.670;5.808;2023-02-28T13:15:21;2.72;;;1.95;;
62584;SDS011;48643;51.670;5.808;2023-02-28T13:17:51;2.55;;;1.83;;
62584;SDS011;48643;51.670;5.808;2023-02-28T13:20:23;3.45;;;1.98;;
62584;SDS011;48643;51.670;5.808;2023-02-28T13:26:07;2.58;;;1.85;;
62584;SDS011;48643;51.670;5.808;2023-02-28T13:31:27;2.90;;;1.98;;
62584;SDS011;48643;51.670;5.808;2023-02-28T13:36:31;3.08;;;2.13;;
62584;SDS011;48643;51.670;5.808;2023-02-28T13:39:02;3.85;;;2.10;;
62584;SDS011;48643;51.670;5.808;2023-02-28T13:41:49;3.17;;;2.45;;
62584;SDS011;48643;51.670;5.808;2023-02-28T13:44:17;3.53;;;2.50;;
62584;SDS011;48643;51.670;5.808;2023-02-28T14:05:45;4.85;;;3.80;;
62584;SDS011;48643;51.670;5.808;2023-02-28T14:08:14;5.45;;;4.00;;
62584;SDS011;48643;51.670;5.808;2023-02-28T14:10:44;4.38;;;3.50;;
62584;SDS011;48643;51.670;5.808;2023-02-28T14:15:55;5.35;;;3.72;;
62584;SDS011;48643;51.670;5.808;2023-02-28T14:18:28;9.55;;;4.45;;
62584;SDS011;48643;51.670;5.808;2023-02-28T14:21:01;6.15;;;4.63;;
62584;SDS011;48643;51.670;5.808;2023-02-28T14:23:36;8.18;;;5.82;;
62584;SDS011;48643;51.670;5.808;2023-02-28T14:29:28;7.03;;;5.10;;
62584;SDS011;48643;51.670;5.808;2023-02-28T14:37:37;5.82;;;4.57;;
62584;SDS011;48643;51.670;5.808;2023-02-28T14:40:16;8.52;;;4.47;;
62584;SDS011;48643;51.670;5.808;2023-02-28T14:42:48;6.70;;;4.30;;
62584;SDS011;48643;51.670;5.808;2023-02-28T14:45:22;5.50;;;3.97;;
62584;SDS011;48643;51.670;5.808;2023-02-28T14:47:49;5.53;;;3.80;;
62584;SDS011;48643;51.670;5.808;2023-02-28T14:50:21;5.85;;;4.03;;
62584;SDS011;48643;51.670;5.808;2023-02-28T14:52:51;6.07;;;4.60;;
62584;SDS011;48643;51.670;5.808;2023-02-28T14:55:20;5.95;;;4.55;;
62584;SDS011;48643;51.670;5.808;2023-02-28T14:57:58;7.22;;;5.40;;
62584;SDS011;48643;51.670;5.808;2023-02-28T15:00:27;6.22;;;4.60;;
62584;SDS011;48643;51.670;5.808;2023-02-28T15:02:56;5.82;;;4.28;;
62584;SDS011;48643;51.670;5.808;2023-02-28T15:08:12;7.05;;;4.60;;
62584;SDS011;48643;51.670;5.808;2023-02-28T15:10:43;5.45;;;3.80;;
62584;SDS011;48643;51.670;5.808;2023-02-28T15:13:12;6.10;;;4.30;;
62584;SDS011;48643;51.670;5.808;2023-02-28T15:15:42;17.38;;;6.05;;
62584;SDS011;48643;51.670;5.808;2023-02-28T15:18:37;8.15;;;5.63;;
62584;SDS011;48643;51.670;5.808;2023-02-28T15:21:12;6.88;;;5.28;;
62584;SDS011;48643;51.670;5.808;2023-02-28T15:24:02;8.68;;;5.15;;
62584;SDS011;48643;51.670;5.808;2023-02-28T15:26:34;6.93;;;4.45;;
62584;SDS011;48643;51.670;5.808;2023-02-28T15:29:08;7.63;;;4.28;;
62584;SDS011;48643;51.670;5.808;2023-02-28T15:31:54;7.65;;;5.00;;
62584;SDS011;48643;51.670;5.808;2023-02-28T15:34:34;7.88;;;5.05;;
62584;SDS011;48643;51.670;5.808;2023-02-28T15:37:29;6.57;;;4.80;;
62584;SDS011;48643;51.670;5.808;2023-02-28T15:40:11;6.95;;;4.65;;
62584;SDS011;48643;51.670;5.808;2023-02-28T15:43:19;6.40;;;4.38;;
62584;SDS011;48643;51.670;5.808;2023-02-28T15:45:49;6.13;;;4.38;;
62584;SDS011;48643;51.670;5.808;2023-02-28T15:48:36;5.43;;;4.05;;
62584;SDS011;48643;51.670;5.808;2023-02-28T15:51:12;8.23;;;4.30;;
62584;SDS011;48643;51.670;5.808;2023-02-28T15:53:51;6.25;;;4.10;;
62584;SDS011;48643;51.670;5.808;2023-02-28T15:56:29;5.97;;;4.20;;
62584;SDS011;48643;51.670;5.808;2023-02-28T15:59:07;8.80;;;4.47;;
62584;SDS011;48643;51.670;5.808;2023-02-28T16:01:39;8.27;;;4.30;;
62584;SDS011;48643;51.670;5.808;2023-02-28T16:04:14;8.93;;;4.30;;
62584;SDS011;48643;51.670;5.808;2023-02-28T16:06:45;8.23;;;5.15;;
62584;SDS011;48643;51.670;5.808;2023-02-28T16:09:15;10.75;;;4.90;;
62584;SDS011;48643;51.670;5.808;2023-02-28T16:11:44;10.40;;;4.70;;
62584;SDS011;48643;51.670;5.808;2023-02-28T16:14:14;7.05;;;4.97;;
62584;SDS011;48643;51.670;5.808;2023-02-28T16:16:45;6.00;;;4.47;;
62584;SDS011;48643;51.670;5.808;2023-02-28T16:19:15;7.10;;;4.80;;
62584;SDS011;48643;51.670;5.808;2023-02-28T16:21:43;6.80;;;4.88;;
62584;SDS011;48643;51.670;5.808;2023-02-28T16:24:09;8.57;;;4.72;;
62584;SDS011;48643;51.670;5.808;2023-02-28T16:26:36;10.02;;;4.50;;
62584;SDS011;48643;51.670;5.808;2023-02-28T16:29:05;9.50;;;4.53;;
62584;SDS011;48643;51.670;5.808;2023-02-28T16:31:34;9.70;;;4.30;;
62584;SDS011;48643;51.670;5.808;2023-02-28T16:34:03;6.18;;;3.80;;
62584;SDS011;48643;51.670;5.808;2023-02-28T16:36:31;7.53;;;4.00;;
62584;SDS011;48643;51.670;5.808;2023-02-28T16:38:58;7.30;;;4.00;;
62584;SDS011;48643;51.670;5.808;2023-02-28T16:41:25;5.30;;;4.05;;
62584;SDS011;48643;51.670;5.808;2023-02-28T16:46:25;8.48;;;4.20;;
62584;SDS011;48643;51.670;5.808;2023-02-28T16:48:54;7.38;;;3.85;;
62584;SDS011;48643;51.670;5.808;2023-02-28T16:51:21;5.78;;;4.00;;
62584;SDS011;48643;51.670;5.808;2023-02-28T16:53:47;4.88;;;3.58;;
62584;SDS011;48643;51.670;5.808;2023-02-28T16:56:22;5.40;;;3.50;;
62584;SDS011;48643;51.670;5.808;2023-02-28T16:58:50;7.85;;;3.45;;
62584;SDS011;48643;51.670;5.808;2023-02-28T17:01:18;7.18;;;3.58;;
62584;SDS011;48643;51.670;5.808;2023-02-28T17:03:48;5.82;;;3.70;;
62584;SDS011;48643;51.670;5.808;2023-02-28T17:06:20;6.38;;;3.78;;
62584;SDS011;48643;51.670;5.808;2023-02-28T17:08:49;6.00;;;3.50;;
62584;SDS011;48643;51.670;5.808;2023-02-28T17:11:17;5.82;;;3.60;;
62584;SDS011;48643;51.670;5.808;2023-02-28T17:13:44;5.10;;;3.60;;
62584;SDS011;48643;51.670;5.808;2023-02-28T17:16:20;6.05;;;4.30;;
62584;SDS011;48643;51.670;5.808;2023-02-28T17:18:58;7.30;;;4.70;;